createdAt,value
2023-05-25T00:01:44.110Z,8.50
2023-05-25T00:04:11.752Z,8.90
2023-05-25T00:06:41.209Z,8.10
2023-05-25T00:09:08.425Z,8.33
2023-05-25T00:11:35.534Z,7.97
2023-05-25T00:14:02.719Z,8.07
2023-05-25T00:16:29.896Z,8.60
2023-05-25T00:18:57.684Z,7.90
2023-05-25T00:21:25.902Z,7.27
2023-05-25T00:23:53.000Z,7.97
2023-05-25T00:26:20.079Z,8.83
2023-05-25T00:28:47.193Z,8.40
2023-05-25T00:31:14.343Z,9.27
2023-05-25T00:33:41.584Z,8.83
2023-05-25T00:36:09.154Z,9.30
2023-05-25T00:38:36.845Z,8.93
2023-05-25T00:41:06.235Z,9.93
2023-05-25T00:43:33.493Z,10.93
2023-05-25T00:46:01.489Z,10.43
2023-05-25T00:48:29.226Z,10.67
2023-05-25T00:50:59.812Z,8.47
2023-05-25T00:53:27.133Z,9.40
2023-05-25T00:56:09.646Z,9.50
2023-05-25T00:58:41.529Z,11.17
2023-05-25T01:01:13.393Z,12.03
2023-05-25T01:03:45.613Z,11.30
2023-05-25T01:06:16.963Z,9.60
2023-05-25T01:08:51.114Z,8.90
2023-05-25T01:11:32.237Z,9.27
2023-05-25T01:13:59.882Z,9.23
2023-05-25T01:16:27.438Z,8.97
2023-05-25T01:18:54.862Z,9.20
2023-05-25T01:21:48.127Z,8.73
2023-05-25T01:24:33.558Z,10.00
2023-05-25T01:27:17.219Z,10.00
2023-05-25T01:29:46.913Z,9.40
2023-05-25T01:32:14.895Z,9.87
2023-05-25T01:34:43.658Z,9.53
2023-05-25T01:37:13.535Z,8.77
2023-05-25T01:39:41.405Z,9.30
2023-05-25T01:42:08.861Z,8.60
2023-05-25T01:44:37.750Z,7.80
2023-05-25T01:47:40.308Z,8.00
2023-05-25T01:50:22.690Z,8.37
2023-05-25T01:53:03.559Z,7.60
2023-05-25T01:55:38.179Z,7.70
2023-05-25T01:58:06.831Z,7.20
2023-05-25T02:00:35.889Z,6.67
2023-05-25T02:03:03.802Z,6.80
2023-05-25T02:05:31.329Z,7.17
2023-05-25T02:07:58.464Z,9.17
2023-05-25T02:10:25.595Z,7.87
2023-05-25T02:12:52.747Z,6.23
2023-05-25T02:15:19.920Z,9.20
2023-05-25T02:17:48.368Z,6.80
2023-05-25T02:20:15.813Z,8.13
2023-05-25T02:22:42.987Z,8.87
2023-05-25T02:25:11.677Z,7.83
2023-05-25T02:27:38.897Z,8.27
2023-05-25T02:30:07.991Z,7.43
2023-05-25T02:32:35.939Z,6.83
2023-05-25T02:35:03.602Z,7.37
2023-05-25T02:37:30.860Z,7.60
2023-05-25T02:39:57.965Z,7.23
2023-05-25T02:42:25.687Z,7.07
2023-05-25T02:44:52.896Z,7.40
2023-05-25T02:47:20.183Z,7.37
2023-05-25T02:49:47.858Z,7.47
2023-05-25T02:52:15.028Z,8.03
2023-05-25T02:54:42.690Z,8.37
2023-05-25T02:57:13.721Z,7.80
2023-05-25T02:59:41.019Z,7.93
2023-05-25T03:02:08.896Z,9.37
2023-05-25T03:04:38.896Z,9.87
2023-05-25T03:07:06.073Z,8.07
2023-05-25T03:09:33.234Z,7.80
2023-05-25T03:12:02.982Z,10.37
2023-05-25T03:14:30.118Z,10.40
2023-05-25T03:17:04.355Z,10.53
2023-05-25T03:19:32.359Z,12.23
2023-05-25T03:22:00.305Z,27.50
2023-05-25T03:24:28.855Z,28.17
2023-05-25T03:26:59.726Z,24.83
2023-05-25T03:29:27.141Z,22.20
2023-05-25T03:31:54.406Z,23.03
2023-05-25T03:34:29.287Z,22.10
2023-05-25T03:36:56.631Z,21.00
2023-05-25T03:39:23.914Z,23.60
2023-05-25T03:41:52.909Z,12.77
2023-05-25T03:44:20.145Z,15.23
2023-05-25T03:46:47.320Z,12.70
2023-05-25T03:49:14.505Z,9.40
2023-05-25T03:51:42.931Z,11.80
2023-05-25T03:54:10.551Z,10.27
2023-05-25T03:56:37.684Z,9.47
2023-05-25T03:59:06.016Z,9.03
2023-05-25T04:01:33.165Z,13.03
2023-05-25T04:04:00.483Z,10.13
2023-05-25T04:06:30.166Z,9.70
2023-05-25T04:08:58.193Z,9.47
2023-05-25T04:11:27.612Z,10.83
2023-05-25T04:13:58.165Z,11.30
2023-05-25T04:16:28.672Z,10.90
2023-05-25T04:18:56.378Z,10.60
2023-05-25T04:21:24.041Z,10.37
2023-05-25T04:23:51.384Z,10.43
2023-05-25T04:26:19.572Z,11.60
2023-05-25T04:28:49.269Z,10.07
2023-05-25T04:31:40.309Z,10.27
2023-05-25T04:34:27.782Z,10.73
2023-05-25T04:37:09.189Z,15.93
2023-05-25T04:39:37.518Z,9.87
2023-05-25T04:42:06.178Z,9.27
2023-05-25T04:44:34.609Z,11.13
2023-05-25T04:47:03.131Z,9.57
2023-05-25T04:49:34.529Z,9.47
2023-05-25T04:52:01.740Z,9.57
2023-05-25T04:54:31.325Z,8.77
2023-05-25T04:57:02.668Z,8.23
2023-05-25T04:59:31.620Z,8.90
2023-05-25T05:01:59.033Z,8.60
2023-05-25T05:04:27.296Z,10.27
2023-05-25T05:06:57.385Z,11.10
2023-05-25T05:09:26.590Z,12.37
2023-05-25T05:11:57.064Z,10.97
2023-05-25T05:14:24.656Z,9.00
2023-05-25T05:16:53.262Z,9.70
2023-05-25T05:19:21.467Z,8.20
2023-05-25T05:21:48.769Z,7.93
2023-05-25T05:24:17.582Z,7.27
2023-05-25T05:26:57.356Z,7.80
2023-05-25T05:29:46.893Z,7.07
2023-05-25T05:32:14.106Z,7.50
2023-05-25T05:34:41.288Z,6.83
2023-05-25T05:37:18.084Z,6.27
2023-05-25T05:39:46.231Z,6.30
2023-05-25T05:42:15.136Z,6.30
2023-05-25T05:44:42.336Z,6.80
2023-05-25T05:47:09.584Z,6.40
2023-05-25T05:49:39.361Z,5.53
2023-05-25T05:52:09.518Z,5.57
2023-05-25T05:54:37.281Z,5.73
2023-05-25T05:57:09.845Z,5.73
2023-05-25T05:59:37.463Z,6.87
2023-05-25T06:02:07.473Z,5.97
2023-05-25T06:04:34.724Z,6.37
2023-05-25T06:07:01.845Z,5.43
2023-05-25T06:09:29.147Z,5.13
2023-05-25T06:11:59.710Z,5.53
2023-05-25T06:14:28.767Z,5.07
2023-05-25T06:16:59.342Z,5.63
2023-05-25T06:19:26.739Z,4.40
2023-05-25T06:21:53.885Z,4.47
2023-05-25T06:24:21.670Z,6.07
2023-05-25T06:26:48.971Z,4.97
2023-05-25T06:29:17.404Z,6.10
2023-05-25T06:31:45.248Z,5.00
2023-05-25T06:34:12.768Z,5.53
2023-05-25T06:36:41.832Z,6.57
2023-05-25T06:39:10.357Z,5.80
2023-05-25T06:41:39.331Z,6.17
2023-05-25T06:44:07.893Z,5.87
2023-05-25T06:46:42.041Z,5.80
2023-05-25T06:49:09.845Z,6.83
2023-05-25T06:51:37.578Z,5.83
2023-05-25T06:54:04.885Z,5.20
2023-05-25T06:56:32.018Z,6.67
2023-05-25T06:58:59.153Z,5.23
2023-05-25T07:01:26.553Z,5.30
2023-05-25T07:03:53.729Z,5.43
2023-05-25T07:06:21.163Z,5.30
2023-05-25T07:08:51.331Z,6.93
2023-05-25T07:11:20.824Z,5.90
2023-05-25T07:13:48.584Z,5.80
2023-05-25T07:16:15.815Z,5.77
2023-05-25T07:18:43.034Z,5.77
2023-05-25T07:21:10.403Z,6.27
2023-05-25T07:23:38.379Z,5.80
2023-05-25T07:26:06.216Z,5.50
2023-05-25T07:28:33.519Z,4.67
2023-05-25T07:31:01.478Z,5.07
2023-05-25T07:33:28.619Z,5.93
2023-05-25T07:35:55.755Z,5.30
2023-05-25T07:38:22.845Z,5.63
2023-05-25T07:40:50.106Z,5.30
2023-05-25T07:43:17.200Z,4.67
2023-05-25T07:45:44.367Z,4.60
2023-05-25T07:48:11.735Z,4.47
2023-05-25T07:50:38.868Z,4.57
2023-05-25T07:53:05.946Z,3.90
2023-05-25T07:55:33.686Z,3.90
2023-05-25T07:58:00.916Z,4.43
2023-05-25T08:00:28.236Z,4.00
2023-05-25T08:02:56.264Z,3.67
2023-05-25T08:05:23.609Z,3.50
2023-05-25T08:07:50.828Z,3.63
2023-05-25T08:10:18.059Z,4.00
2023-05-25T08:12:49.574Z,3.57
2023-05-25T08:15:17.934Z,4.50
2023-05-25T08:17:45.260Z,5.10
2023-05-25T08:20:12.957Z,4.67
2023-05-25T08:22:40.735Z,3.67
2023-05-25T08:25:08.429Z,4.43
2023-05-25T08:27:38.765Z,3.43
2023-05-25T08:30:10.086Z,3.30
2023-05-25T08:32:37.321Z,5.63
2023-05-25T08:35:05.153Z,4.27
2023-05-25T08:37:33.365Z,3.30
2023-05-25T08:40:02.667Z,4.17
2023-05-25T08:42:30.216Z,4.17
2023-05-25T08:44:58.895Z,4.00
2023-05-25T08:47:33.856Z,4.30
2023-05-25T08:50:04.746Z,4.83
2023-05-25T08:52:34.362Z,4.00
2023-05-25T08:55:05.893Z,4.23
2023-05-25T08:57:46.958Z,5.03
2023-05-25T09:00:16.403Z,6.00
2023-05-25T09:03:18.109Z,4.00
2023-05-25T09:05:46.521Z,4.03
2023-05-25T09:08:14.886Z,4.73
2023-05-25T09:10:43.028Z,4.60
2023-05-25T09:13:21.302Z,4.23
2023-05-25T09:15:50.975Z,3.83
2023-05-25T09:18:18.185Z,4.60
2023-05-25T09:20:47.288Z,4.50
2023-05-25T09:23:15.628Z,5.20
2023-05-25T09:25:44.193Z,4.07
2023-05-25T09:30:42.046Z,5.27
2023-05-25T09:33:13.379Z,4.43
2023-05-25T09:35:41.170Z,4.57
2023-05-25T09:38:08.529Z,5.03
2023-05-25T09:40:38.279Z,5.60
2023-05-25T09:43:05.488Z,3.90
2023-05-25T09:45:32.770Z,5.77
2023-05-25T09:48:00.407Z,4.93
2023-05-25T09:50:32.508Z,3.97
2023-05-25T09:53:01.546Z,4.13
2023-05-25T09:55:39.963Z,5.43
2023-05-25T09:58:16.744Z,5.07
2023-05-25T10:00:46.355Z,4.20
2023-05-25T10:03:15.846Z,4.97
2023-05-25T10:05:43.070Z,5.13
2023-05-25T10:08:11.728Z,4.07
2023-05-25T10:10:41.211Z,5.20
2023-05-25T10:13:10.248Z,4.17
2023-05-25T10:15:41.245Z,5.40
2023-05-25T10:18:10.260Z,4.30
2023-05-25T10:20:38.432Z,4.57
2023-05-25T10:23:13.338Z,4.97
2023-05-25T10:25:45.261Z,5.30
2023-05-25T10:28:36.531Z,4.87
2023-05-25T10:31:05.537Z,4.37
2023-05-25T10:33:33.999Z,4.50
2023-05-25T10:36:10.678Z,5.10
2023-05-25T10:38:40.827Z,3.83
2023-05-25T10:41:11.212Z,4.97
2023-05-25T10:43:41.746Z,5.20
2023-05-25T10:46:09.098Z,3.87
2023-05-25T10:48:46.240Z,3.83
2023-05-25T10:51:14.272Z,5.77
2023-05-25T10:53:46.272Z,4.67
2023-05-25T10:56:14.354Z,4.37
2023-05-25T10:58:44.190Z,4.70
2023-05-25T11:01:14.430Z,4.93
2023-05-25T11:03:45.070Z,5.00
2023-05-25T11:06:21.758Z,4.97
2023-05-25T11:08:59.432Z,3.90
2023-05-25T11:11:47.621Z,4.37
2023-05-25T11:14:30.328Z,5.03
2023-05-25T11:17:19.159Z,4.50
2023-05-25T11:19:54.573Z,4.70
2023-05-25T11:22:23.996Z,4.60
2023-05-25T11:24:53.189Z,5.33
2023-05-25T11:27:25.085Z,4.27
2023-05-25T11:29:53.453Z,4.40
2023-05-25T11:32:21.457Z,4.90
2023-05-25T11:34:53.008Z,4.03
2023-05-25T11:37:24.822Z,5.10
2023-05-25T11:39:53.504Z,5.20
2023-05-25T11:42:23.920Z,3.87
2023-05-25T11:44:51.961Z,4.60
2023-05-25T11:47:23.661Z,3.90
2023-05-25T11:49:51.118Z,4.90
2023-05-25T11:52:20.021Z,4.20
2023-05-25T11:54:47.820Z,3.90
2023-05-25T11:57:22.604Z,4.17
2023-05-25T11:59:51.262Z,4.30
2023-05-25T12:02:19.069Z,4.33
2023-05-25T12:04:57.404Z,3.57
2023-05-25T12:07:26.386Z,3.53
2023-05-25T12:10:09.598Z,3.77
2023-05-25T12:12:46.152Z,3.73
2023-05-25T12:15:24.567Z,4.43
2023-05-25T12:17:53.788Z,3.60
2023-05-25T12:20:21.636Z,3.33
2023-05-25T12:22:49.116Z,3.80
2023-05-25T12:25:21.670Z,3.00
2023-05-25T12:27:48.813Z,3.67
2023-05-25T12:30:16.262Z,3.57
2023-05-25T12:32:54.659Z,3.93
2023-05-25T12:35:22.611Z,3.20
2023-05-25T12:37:49.989Z,3.00
2023-05-25T12:40:21.554Z,3.03
2023-05-25T12:42:57.353Z,3.17
2023-05-25T12:45:24.946Z,2.73
2023-05-25T12:47:52.557Z,2.70
2023-05-25T12:50:19.897Z,3.07
2023-05-25T12:52:48.782Z,3.07
2023-05-25T12:55:34.343Z,3.07
2023-05-25T12:58:04.792Z,2.67
2023-05-25T13:00:41.057Z,2.47
2023-05-25T13:03:08.688Z,3.00
2023-05-25T13:05:37.798Z,3.70
2023-05-25T13:08:08.927Z,2.70
2023-05-25T13:10:38.261Z,3.40
2023-05-25T13:13:05.629Z,2.93
2023-05-25T13:15:33.326Z,2.80
2023-05-25T13:18:00.714Z,2.80
2023-05-25T13:20:32.596Z,3.40
2023-05-25T13:23:00.201Z,2.80
2023-05-25T13:25:28.271Z,2.60
2023-05-25T13:27:58.208Z,2.70
2023-05-25T13:30:26.638Z,3.60
2023-05-25T13:32:54.318Z,3.60
2023-05-25T13:35:38.224Z,2.87
2023-05-25T13:38:05.846Z,2.57
2023-05-25T13:40:33.047Z,2.60
2023-05-25T13:43:00.272Z,2.40
2023-05-25T13:45:27.673Z,3.20
2023-05-25T13:47:55.094Z,2.50
2023-05-25T13:50:22.405Z,3.10
2023-05-25T13:52:49.735Z,3.30
2023-05-25T13:55:16.977Z,3.83
2023-05-25T13:57:44.394Z,3.17
2023-05-25T14:00:12.496Z,3.60
2023-05-25T14:02:39.877Z,2.63
2023-05-25T14:05:07.588Z,3.03
2023-05-25T14:07:34.659Z,2.97
2023-05-25T14:10:01.755Z,2.77
2023-05-25T14:12:28.937Z,3.30
2023-05-25T14:14:56.128Z,3.60
2023-05-25T14:17:24.807Z,2.83
2023-05-25T14:19:51.984Z,3.13
2023-05-25T14:22:19.529Z,2.97
2023-05-25T14:24:46.694Z,3.20
2023-05-25T14:27:16.118Z,3.03
2023-05-25T14:29:43.279Z,3.20
2023-05-25T14:32:10.656Z,2.70
2023-05-25T14:34:37.752Z,3.80
2023-05-25T14:37:05.043Z,4.03
2023-05-25T14:39:32.216Z,3.63
2023-05-25T14:41:59.409Z,2.80
2023-05-25T14:44:26.547Z,3.07
2023-05-25T14:46:53.817Z,3.60
2023-05-25T14:49:25.121Z,2.70
2023-05-25T14:51:52.304Z,3.50
2023-05-25T14:54:19.810Z,2.97
2023-05-25T14:56:48.076Z,3.30
2023-05-25T14:59:15.428Z,4.00
2023-05-25T15:01:43.427Z,3.77
2023-05-25T15:04:10.843Z,2.80
2023-05-25T15:06:39.446Z,3.47
2023-05-25T15:09:07.229Z,3.20
2023-05-25T15:11:34.564Z,3.87
2023-05-25T15:14:02.035Z,3.77
2023-05-25T15:16:29.439Z,4.03
2023-05-25T15:18:56.687Z,3.90
2023-05-25T15:21:24.037Z,3.97
2023-05-25T15:23:51.513Z,4.70
2023-05-25T15:26:18.752Z,2.80
2023-05-25T15:28:45.885Z,3.53
2023-05-25T15:31:14.292Z,4.20
2023-05-25T15:33:50.032Z,3.27
2023-05-25T15:36:23.608Z,4.17
2023-05-25T15:38:50.749Z,3.27
2023-05-25T15:41:21.010Z,3.17
2023-05-25T15:44:03.093Z,3.73
2023-05-25T15:46:30.396Z,3.37
2023-05-25T15:48:57.495Z,3.47
2023-05-25T15:51:24.709Z,4.40
2023-05-25T15:53:52.373Z,2.83
2023-05-25T15:56:19.585Z,2.90
2023-05-25T15:58:48.965Z,4.20
2023-05-25T16:01:16.434Z,3.40
2023-05-25T16:03:44.863Z,3.43
2023-05-25T16:06:12.229Z,3.20
2023-05-25T16:08:39.422Z,3.70
2023-05-25T16:11:06.674Z,3.87
2023-05-25T16:13:33.968Z,4.00
2023-05-25T16:16:01.169Z,3.97
2023-05-25T16:18:28.363Z,3.80
2023-05-25T16:20:58.284Z,3.90
2023-05-25T16:23:25.553Z,3.83
2023-05-25T16:25:52.813Z,3.33
2023-05-25T16:28:20.370Z,4.10
2023-05-25T16:30:47.643Z,3.90
2023-05-25T16:33:14.978Z,4.27
2023-05-25T16:35:43.550Z,4.30
2023-05-25T16:38:10.931Z,3.57
2023-05-25T16:40:38.087Z,3.70
2023-05-25T16:43:05.414Z,3.70
2023-05-25T16:45:32.639Z,4.10
2023-05-25T16:48:03.048Z,4.10
2023-05-25T16:50:32.713Z,3.97
2023-05-25T16:53:00.034Z,3.30
2023-05-25T16:55:27.190Z,3.50
2023-05-25T16:57:54.466Z,3.80
2023-05-25T17:00:22.440Z,4.30
2023-05-25T17:02:50.173Z,4.30
2023-05-25T17:05:17.788Z,3.90
2023-05-25T17:07:47.322Z,4.03
2023-05-25T17:10:14.491Z,3.60
2023-05-25T17:12:42.128Z,4.10
2023-05-25T17:15:11.342Z,3.97
2023-05-25T17:17:38.573Z,3.50
2023-05-25T17:20:06.714Z,4.00
2023-05-25T17:22:41.324Z,4.07
2023-05-25T17:25:09.337Z,4.10
2023-05-25T17:27:39.372Z,3.77
2023-05-25T17:30:07.491Z,4.03
2023-05-25T17:32:34.707Z,4.07
2023-05-25T17:35:02.242Z,4.00
2023-05-25T17:37:29.486Z,4.70
2023-05-25T17:39:56.637Z,3.90
2023-05-25T17:42:27.485Z,3.60
2023-05-25T17:44:54.627Z,4.13
2023-05-25T17:47:22.600Z,3.80
2023-05-25T17:49:50.138Z,4.30
2023-05-25T17:52:17.416Z,3.70
2023-05-25T17:54:44.607Z,3.97
2023-05-25T17:57:11.763Z,3.47
2023-05-25T17:59:39.046Z,3.83
2023-05-25T18:02:06.565Z,4.13
2023-05-25T18:04:33.814Z,4.37
2023-05-25T18:07:03.434Z,3.30
2023-05-25T18:09:30.613Z,3.80
2023-05-25T18:11:58.097Z,4.37
2023-05-25T18:14:25.793Z,4.97
2023-05-25T18:16:55.316Z,4.50
2023-05-25T18:19:22.624Z,3.87
2023-05-25T18:21:53.968Z,3.80
2023-05-25T18:24:24.095Z,4.00
2023-05-25T18:26:52.284Z,4.10
2023-05-25T18:29:19.942Z,4.20
2023-05-25T18:31:48.766Z,5.13
2023-05-25T18:34:19.561Z,4.60
2023-05-25T18:36:46.779Z,5.30
2023-05-25T18:39:13.968Z,5.40
2023-05-25T18:41:42.728Z,4.67
2023-05-25T18:44:09.992Z,4.23
2023-05-25T18:46:39.799Z,4.47
2023-05-25T18:49:07.046Z,4.63
2023-05-25T18:51:34.217Z,4.70
2023-05-25T18:54:01.398Z,5.77
2023-05-25T18:56:28.541Z,5.10
2023-05-25T18:58:57.132Z,4.27
2023-05-25T19:01:25.597Z,4.70
2023-05-25T19:03:58.153Z,5.10
2023-05-25T19:06:27.193Z,4.90
2023-05-25T19:08:55.459Z,4.60
2023-05-25T19:11:22.982Z,4.60
2023-05-25T19:13:50.341Z,4.77
2023-05-25T19:16:17.842Z,4.83
2023-05-25T19:18:45.383Z,5.00
2023-05-25T19:21:12.646Z,5.10
2023-05-25T19:23:41.651Z,4.57
2023-05-25T19:26:08.985Z,5.23
2023-05-25T19:28:36.209Z,4.33
2023-05-25T19:31:03.534Z,4.33
2023-05-25T19:33:30.729Z,4.63
2023-05-25T19:35:58.047Z,4.93
2023-05-25T19:38:28.863Z,4.90
2023-05-25T19:41:01.617Z,4.10
2023-05-25T19:43:29.008Z,4.03
2023-05-25T19:45:56.357Z,4.00
2023-05-25T19:48:25.950Z,4.97
2023-05-25T19:50:54.600Z,4.40
2023-05-25T19:53:21.926Z,4.13
2023-05-25T19:55:49.330Z,5.30
2023-05-25T19:58:16.668Z,4.80
2023-05-25T20:00:43.785Z,5.00
2023-05-25T20:03:11.137Z,4.70
2023-05-25T20:05:41.284Z,4.50
2023-05-25T20:08:08.757Z,3.80
2023-05-25T20:10:39.565Z,4.90
2023-05-25T20:13:08.647Z,3.80
2023-05-25T20:15:36.117Z,4.33
2023-05-25T20:18:03.584Z,4.63
2023-05-25T20:20:31.374Z,5.30
2023-05-25T20:22:58.822Z,5.00
2023-05-25T20:25:26.222Z,5.50
2023-05-25T20:27:53.389Z,5.07
2023-05-25T20:30:20.906Z,5.10
2023-05-25T20:32:48.241Z,5.57
2023-05-25T20:35:18.394Z,4.57
2023-05-25T20:37:46.061Z,5.83
2023-05-25T20:40:13.471Z,4.80
2023-05-25T20:42:40.831Z,4.30
2023-05-25T20:45:08.681Z,4.40
2023-05-25T20:47:35.969Z,6.00
2023-05-25T20:50:03.120Z,5.03
2023-05-25T20:52:30.453Z,4.30
2023-05-25T20:54:57.629Z,5.23
2023-05-25T20:57:24.852Z,5.00
2023-05-25T20:59:54.114Z,5.27
2023-05-25T21:02:21.422Z,5.70
2023-05-25T21:04:48.545Z,5.60
2023-05-25T21:07:15.896Z,4.53
2023-05-25T21:09:43.139Z,4.50
2023-05-25T21:12:10.712Z,4.57
2023-05-25T21:14:38.054Z,5.00
2023-05-25T21:17:05.196Z,5.63
2023-05-25T21:19:32.466Z,4.67
2023-05-25T21:22:00.194Z,4.73
2023-05-25T21:24:27.307Z,4.50
2023-05-25T21:26:54.465Z,5.47
2023-05-25T21:29:21.649Z,5.30
2023-05-25T21:31:48.918Z,5.13
2023-05-25T21:34:16.168Z,5.17
2023-05-25T21:36:43.737Z,6.17
2023-05-25T21:39:11.102Z,5.10
2023-05-25T21:41:38.367Z,5.53
2023-05-25T21:44:05.661Z,4.70
2023-05-25T21:46:33.260Z,6.00
2023-05-25T21:49:00.387Z,5.33
2023-05-25T21:51:30.074Z,4.67
2023-05-25T21:53:57.236Z,4.90
2023-05-25T21:56:24.356Z,5.10
2023-05-25T21:58:51.408Z,4.63
2023-05-25T22:01:18.532Z,5.83
2023-05-25T22:03:45.665Z,5.90
2023-05-25T22:06:12.778Z,5.37
2023-05-25T22:08:41.233Z,5.27
2023-05-25T22:11:08.366Z,4.53
2023-05-25T22:13:35.639Z,4.83
2023-05-25T22:16:02.759Z,5.03
2023-05-25T22:18:29.973Z,5.20
2023-05-25T22:20:57.222Z,6.20
2023-05-25T22:23:24.470Z,5.47
2023-05-25T22:25:51.718Z,4.60
2023-05-25T22:28:18.951Z,5.80
2023-05-25T22:30:46.126Z,5.60
2023-05-25T22:33:13.236Z,6.00
2023-05-25T22:35:40.720Z,5.40
2023-05-25T22:38:07.880Z,6.17
2023-05-25T22:40:34.979Z,5.57
2023-05-25T22:43:02.128Z,6.33
2023-05-25T22:45:29.267Z,5.33
2023-05-25T22:47:56.545Z,5.57
2023-05-25T22:50:23.893Z,5.70
2023-05-25T22:52:51.110Z,6.13
2023-05-25T22:55:18.201Z,5.33
2023-05-25T22:57:45.388Z,4.80
2023-05-25T23:00:12.932Z,5.20
2023-05-25T23:02:40.190Z,5.67
2023-05-25T23:05:09.076Z,5.37
2023-05-25T23:07:36.398Z,6.10
2023-05-25T23:10:05.394Z,6.17
2023-05-25T23:12:33.436Z,5.30
2023-05-25T23:15:01.346Z,5.20
2023-05-25T23:17:28.541Z,5.97
2023-05-25T23:19:55.698Z,6.47
2023-05-25T23:22:22.857Z,5.33
2023-05-25T23:24:49.907Z,5.30
2023-05-25T23:27:17.072Z,6.33
2023-05-25T23:29:44.228Z,5.63
2023-05-25T23:32:11.359Z,5.90
2023-05-25T23:34:38.481Z,6.90
2023-05-25T23:37:06.527Z,6.90
2023-05-25T23:39:33.920Z,6.40
2023-05-25T23:42:02.289Z,6.67
2023-05-25T23:44:29.528Z,7.03
2023-05-25T23:46:56.689Z,6.50
2023-05-25T23:49:23.834Z,6.17
2023-05-25T23:51:51.180Z,6.93
2023-05-25T23:54:18.479Z,6.00
2023-05-25T23:56:45.607Z,7.50
2023-05-25T23:59:15.193Z,7.60
